Time;durP1;ratioP1;P1;durP2;ratioP2;P2;SDS_P1;SDS_P2;PMS_P1;PMS_P2;Temp;Humidity;BMP_temperature;BMP_pressure;BME280_temperature;BME280_humidity;BME280_pressure;Samples;Min_cycle;Max_cycle;Signal;HPM_P1;HPM_P2
2023/07/22 00:01:43;;;;;;;17.40;9.65;;;;;;;14.56;88.07;101237.09;4978977;28;20022;-89
2023/07/22 00:04:09;;;;;;;18.20;10.20;;;;;;;14.54;88.09;101234.59;4978676;28;20061;-89
2023/07/22 00:06:34;;;;;;;15.03;9.17;;;;;;;14.53;88.58;101227.47;4962165;28;20129;-89
2023/07/22 00:09:09;;;;;;;17.17;10.95;;;;;;;14.51;88.74;101240.53;4978927;28;20026;-89
2023/07/22 00:11:37;;;;;;;18.63;10.15;;;;;;;14.51;89.26;101228.75;4978507;28;20077;-89
2023/07/22 00:14:06;;;;;;;16.00;10.33;;;;;;;14.45;89.28;101230.50;4978612;28;20053;-89
2023/07/22 00:16:42;;;;;;;16.35;10.68;;;;;;;14.50;89.15;101233.38;4963545;28;20053;-89
2023/07/22 00:19:14;;;;;;;16.05;9.52;;;;;;;14.48;89.42;101234.69;4963543;28;20542;-89
2023/07/22 00:21:47;;;;;;;16.83;10.45;;;;;;;14.42;89.19;101221.97;4996295;28;20086;-89
2023/07/22 00:24:30;;;;;;;16.23;10.23;;;;;;;14.45;89.61;101225.03;4979267;28;20463;-89
2023/07/22 00:27:06;;;;;;;14.50;9.80;;;;;;;14.37;89.57;101222.66;4978936;28;20038;-89
2023/07/22 00:29:46;;;;;;;15.80;9.32;;;;;;;14.35;89.98;101211.97;4979982;28;20057;-89
2023/07/22 00:32:23;;;;;;;16.13;9.43;;;;;;;14.36;89.88;101220.97;4962643;28;20089;-89
2023/07/22 00:34:51;;;;;;;17.17;9.48;;;;;;;14.29;90.74;101218.38;4978808;28;20430;-89
2023/07/22 00:37:24;;;;;;;14.18;9.25;;;;;;;14.26;90.83;101228.88;4978464;28;20073;-89
2023/07/22 00:39:53;;;;;;;15.53;9.30;;;;;;;14.16;91.67;101226.72;4978870;28;20426;-89
2023/07/22 00:42:21;;;;;;;20.60;9.93;;;;;;;14.19;91.88;101232.53;4978589;28;20112;-89
2023/07/22 00:44:58;;;;;;;15.60;9.25;;;;;;;14.10;92.20;101216.72;4962202;28;20047;-89
2023/07/22 00:47:36;;;;;;;20.80;10.00;;;;;;;14.08;92.14;101211.50;4978324;28;20031;-89
2023/07/22 00:53:02;;;;;;;16.93;10.13;;;;;;;14.08;92.98;101205.22;4981273;28;20092;-89
2023/07/22 00:55:55;;;;;;;;;;;;;;;;;;;;;
2023/07/22 00:58:28;;;;;;;15.32;9.70;;;;;;;14.07;93.48;101209.00;4995717;28;20049;-89
2023/07/22 01:01:03;;;;;;;16.15;9.52;;;;;;;14.13;93.97;101218.97;4962343;28;20049;-89
2023/07/22 01:03:38;;;;;;;15.10;9.32;;;;;;;14.07;94.28;101204.38;4974832;28;20035;-89
2023/07/22 01:06:06;;;;;;;18.13;9.47;;;;;;;14.06;94.50;101215.53;4976287;28;20416;-89
2023/07/22 01:08:42;;;;;;;14.80;8.93;;;;;;;14.07;94.22;101215.28;4977768;28;20085;-89
2023/07/22 01:11:10;;;;;;;15.18;9.63;;;;;;;14.00;94.93;101209.09;4977481;28;20030;-89
2023/07/22 01:13:48;;;;;;;17.45;9.98;;;;;;;14.04;95.42;101215.75;4977603;28;20455;-89
2023/07/22 01:16:14;;;;;;;18.75;9.68;;;;;;;14.03;95.06;101208.63;4961943;28;20045;-89
2023/07/22 01:18:44;;;;;;;15.43;9.77;;;;;;;14.00;95.44;101201.72;4977020;28;20034;-89
2023/07/22 01:21:21;;;;;;;16.75;9.50;;;;;;;14.01;95.54;101199.81;4978597;28;20044;-91
2023/07/22 01:23:59;;;;;;;16.83;9.52;;;;;;;14.03;95.73;101203.19;4995199;28;20028;-89
2023/07/22 01:26:30;;;;;;;15.57;9.93;;;;;;;13.98;95.74;101192.09;4974360;28;20045;-89
2023/07/22 01:29:08;;;;;;;19.80;10.10;;;;;;;13.98;95.17;101197.56;4973877;28;20038;-89
2023/07/22 01:31:38;;;;;;;16.50;9.55;;;;;;;13.95;96.04;101189.84;4987978;28;20073;-89
2023/07/22 01:34:06;;;;;;;17.67;9.32;;;;;;;13.96;95.37;101202.41;4994566;28;20105;-89
2023/07/22 01:36:42;;;;;;;15.93;9.85;;;;;;;13.99;95.17;101197.31;4961915;28;20065;-89
2023/07/22 01:39:11;;;;;;;16.63;9.50;;;;;;;13.94;94.99;101189.00;4978008;28;20027;-89
2023/07/22 01:41:39;;;;;;;17.67;10.00;;;;;;;13.96;94.42;101191.50;4977088;28;20032;-89
2023/07/22 01:44:13;;;;;;;15.45;9.50;;;;;;;13.93;94.40;101198.25;4977036;28;20038;-89
2023/07/22 01:46:41;;;;;;;16.75;9.20;;;;;;;13.92;95.07;101182.13;4977810;28;20042;-89
2023/07/22 01:49:09;;;;;;;19.90;10.23;;;;;;;13.92;94.86;101184.84;4961030;28;20045;-89
2023/07/22 01:51:46;;;;;;;;;;;;;;;;;;;;;
2023/07/22 01:54:13;;;;;;;16.63;10.27;;;;;;;13.94;94.50;101171.81;4993239;28;20051;-89
2023/07/22 01:56:41;;;;;;;17.67;10.15;;;;;;;13.94;94.68;101172.66;4977528;28;20150;-90
2023/07/22 01:59:09;;;;;;;17.88;10.43;;;;;;;13.96;94.61;101180.59;4994357;28;20039;-89
2023/07/22 02:01:37;;;;;;;17.38;10.40;;;;;;;13.94;94.77;101174.56;4977200;28;20546;-89
2023/07/22 02:04:10;;;;;;;18.83;9.33;;;;;;;13.97;94.98;101182.28;4977226;28;20042;-89
2023/07/22 02:06:41;;;;;;;15.40;9.57;;;;;;;13.97;95.58;101185.00;4961665;28;20045;-90
2023/07/22 02:09:13;;;;;;;13.90;8.73;;;;;;;13.94;95.70;101194.47;4977028;28;20467;-91
2023/07/22 02:11:49;;;;;;;15.68;9.65;;;;;;;13.88;95.74;101179.03;4961871;28;20032;-90
2023/07/22 02:14:16;;;;;;;15.55;9.90;;;;;;;13.91;96.04;101175.00;4977501;28;20061;-89
2023/07/22 02:16:42;;;;;;;17.00;9.70;;;;;;;13.91;95.73;101166.84;4961211;28;20026;-89
2023/07/22 02:19:10;;;;;;;18.45;10.38;;;;;;;13.89;96.07;101166.22;4994432;28;20105;-89
2023/07/22 02:21:37;;;;;;;16.65;9.98;;;;;;;13.97;96.64;101179.53;4994670;28;20026;-89
2023/07/22 02:24:08;;;;;;;16.33;9.80;;;;;;;13.86;96.32;101164.75;4977152;28;20471;-89
2023/07/22 02:26:42;;;;;;;17.60;9.90;;;;;;;13.89;96.70;101174.41;4977714;28;20034;-89
2023/07/22 02:29:18;;;;;;;18.95;10.30;;;;;;;13.84;96.64;101161.44;4977620;28;20085;-89
2023/07/22 02:31:49;;;;;;;15.77;9.68;;;;;;;13.88;97.09;101170.00;4965128;28;20463;-89
2023/07/22 02:34:18;;;;;;;16.55;9.60;;;;;;;13.86;97.60;101187.44;4980779;28;20038;-89
2023/07/22 02:36:45;;;;;;;16.17;9.80;;;;;;;13.80;97.47;101165.69;4981191;28;20056;-89
2023/07/22 02:39:14;;;;;;;17.95;9.95;;;;;;;13.77;97.67;101166.16;4980723;28;20183;-89
2023/07/22 02:41:50;;;;;;;16.27;10.00;;;;;;;13.72;97.64;101169.56;4981478;28;20053;-89
2023/07/22 02:44:28;;;;;;;;;;;;;;;;;;;;;
2023/07/22 02:46:58;;;;;;;17.42;9.65;;;;;;;13.54;99.46;101164.09;4998011;28;20036;-89
2023/07/22 02:49:31;;;;;;;16.70;9.97;;;;;;;13.43;99.77;101166.53;4980410;28;20061;-89
2023/07/22 02:52:04;;;;;;;16.70;10.50;;;;;;;13.37;100.00;101164.72;4980164;28;20031;-89
2023/07/22 02:54:32;;;;;;;17.30;9.93;;;;;;;13.27;100.00;101167.09;4976350;28;20050;-90
2023/07/22 02:57:04;;;;;;;17.77;10.07;;;;;;;13.26;100.00;101165.47;4961559;28;20118;-89
2023/07/22 02:59:40;;;;;;;19.17;10.45;;;;;;;13.13;100.00;101160.97;4954009;28;20038;-89
2023/07/22 03:02:15;;;;;;;16.87;9.70;;;;;;;13.15;100.00;101167.88;4961808;28;20069;-89
2023/07/22 03:04:43;;;;;;;18.95;9.93;;;;;;;13.06;100.00;101161.00;4961640;28;20030;-89
2023/07/22 03:07:11;;;;;;;19.60;10.27;;;;;;;12.99;100.00;101160.25;4960834;28;20031;-89
2023/07/22 03:09:37;;;;;;;17.98;9.73;;;;;;;12.92;100.00;101164.94;4944628;28;20094;-89
2023/07/22 03:12:03;;;;;;;17.67;10.00;;;;;;;12.90;100.00;101165.16;4960620;28;20117;-89
2023/07/22 03:14:37;;;;;;;20.80;9.85;;;;;;;12.84;100.00;101163.31;4960632;28;20034;-90
2023/07/22 03:17:08;;;;;;;19.70;10.27;;;;;;;12.79;100.00;101174.06;4960531;28;20037;-89
2023/07/22 03:19:40;;;;;;;18.08;10.02;;;;;;;12.77;100.00;101177.00;4961035;28;20475;-89
2023/07/22 03:22:06;;;;;;;18.50;9.60;;;;;;;12.74;100.00;101185.59;4945272;28;20043;-89
2023/07/22 03:24:31;;;;;;;17.63;9.98;;;;;;;12.64;100.00;101175.19;4978085;28;20077;-89
2023/07/22 03:27:06;;;;;;;19.37;9.90;;;;;;;12.62;100.00;101182.78;4960475;28;20081;-89
2023/07/22 03:29:37;;;;;;;17.20;10.73;;;;;;;12.62;100.00;101190.94;4960743;28;20042;-89
2023/07/22 03:32:05;;;;;;;17.58;10.45;;;;;;;12.60;100.00;101190.31;4944566;28;20102;-89
2023/07/22 03:34:36;;;;;;;19.70;9.63;;;;;;;12.56;100.00;101183.66;4960180;28;20035;-89
2023/07/22 03:37:06;;;;;;;19.17;9.48;;;;;;;12.48;100.00;101188.53;4960242;28;20042;-89
2023/07/22 03:39:37;;;;;;;19.48;9.88;;;;;;;12.50;100.00;101189.13;4960519;28;20513;-89
2023/07/22 03:42:05;;;;;;;19.30;9.48;;;;;;;12.50;100.00;101197.28;4960272;28;20114;-88
2023/07/22 03:44:33;;;;;;;17.80;10.20;;;;;;;12.45;100.00;101200.69;4960639;28;20039;-89
2023/07/22 03:49:54;;;;;;;18.70;9.75;;;;;;;12.32;100.00;101187.97;4977395;28;20038;-89
2023/07/22 03:52:19;;;;;;;17.80;9.45;;;;;;;12.35;100.00;101201.16;4944363;28;20130;-89
2023/07/22 03:54:48;;;;;;;16.53;9.87;;;;;;;12.29;100.00;101193.88;4965206;28;20526;-89
2023/07/22 03:57:16;;;;;;;19.10;9.55;;;;;;;12.25;100.00;101188.03;4979397;28;20030;-89
2023/07/22 03:59:46;;;;;;;18.58;9.85;;;;;;;12.21;100.00;101186.81;4979223;28;20495;-89
2023/07/22 04:02:15;;;;;;;22.75;10.80;;;;;;;12.20;100.00;101179.69;4979372;28;20034;-89
2023/07/22 04:04:58;;;;;;;;;;;;;;;;;;;;;
2023/07/22 04:07:51;;;;;;;;;;;;;;;;;;;;;
2023/07/22 04:10:38;;;;;;;20.63;10.38;;;;;;;12.24;100.00;101191.81;4996487;28;20494;-89
2023/07/22 04:13:06;;;;;;;19.65;10.10;;;;;;;12.18;100.00;101186.38;4965542;28;20036;-88
2023/07/22 04:15:41;;;;;;;20.20;10.88;;;;;;;12.18;100.00;101181.81;4994979;28;20398;-89
2023/07/22 04:18:12;;;;;;;17.25;9.35;;;;;;;12.21;100.00;101192.25;4947720;28;20038;-88
2023/07/22 04:20:50;;;;;;;;;;;;;;;;;;;;;
2023/07/22 04:23:33;;;;;;;17.13;9.93;;;;;;;12.19;100.00;101188.06;4997446;28;20046;-89
2023/07/22 04:26:07;;;;;;;21.75;9.80;;;;;;;12.26;100.00;101197.84;4979037;28;20040;-88
2023/07/22 04:28:37;;;;;;;17.98;10.35;;;;;;;12.19;100.00;101186.16;4979492;28;20040;-89
2023/07/22 04:31:05;;;;;;;18.13;9.75;;;;;;;12.20;100.00;101182.41;4978043;28;20100;-89
2023/07/22 04:34:11;;;;;;;18.73;9.80;;;;;;;12.24;100.00;101194.53;4978511;28;20034;-89
2023/07/22 04:36:39;;;;;;;19.52;9.40;;;;;;;12.31;100.00;101204.53;4978535;28;20038;-89
2023/07/22 04:39:09;;;;;;;16.65;9.52;;;;;;;12.25;100.00;101201.63;4979211;28;20042;-89
2023/07/22 04:41:44;;;;;;;19.20;10.38;;;;;;;12.27;100.00;101193.25;4978402;28;20033;-89
2023/07/22 04:44:17;;;;;;;19.38;10.38;;;;;;;12.39;100.00;101207.00;4978330;28;20057;-89
2023/07/22 04:46:48;;;;;;;19.50;9.63;;;;;;;12.42;100.00;101192.97;4978559;28;20038;-88
2023/07/22 04:49:22;;;;;;;15.80;9.23;;;;;;;12.48;100.00;101186.63;4977941;28;20030;-89
2023/07/22 04:51:52;;;;;;;19.63;9.85;;;;;;;12.58;100.00;101189.69;4978119;28;20089;-89
2023/07/22 04:54:18;;;;;;;14.30;8.55;;;;;;;12.68;100.00;101191.94;4975127;28;20034;-89
2023/07/22 04:56:49;;;;;;;18.97;9.87;;;;;;;12.78;100.00;101194.16;4959048;28;20053;-88
2023/07/22 05:02:05;;;;;;;17.10;9.43;;;;;;;12.98;100.00;101213.06;4912443;28;20041;-88
2023/07/22 05:04:40;;;;;;;;;;;;;;;;;;;;;
2023/07/22 05:07:08;;;;;;;17.23;9.23;;;;;;;13.11;100.00;101203.94;4976630;28;20033;-89
2023/07/22 05:09:46;;;;;;;;;;;;;;;;;;;;;
2023/07/22 05:12:27;;;;;;;16.70;9.23;;;;;;;13.23;100.00;101206.75;4975677;28;20037;-89
2023/07/22 05:14:53;;;;;;;18.52;9.57;;;;;;;13.33;100.00;101207.91;4958739;28;20038;-88
2023/07/22 05:17:31;;;;;;;;;;;;;;;;;;;;;
2023/07/22 05:20:00;;;;;;;16.63;9.02;;;;;;;13.48;100.00;101209.50;4976337;28;20031;-88
2023/07/22 05:22:31;;;;;;;19.10;9.35;;;;;;;13.56;100.00;101211.06;4958058;28;20027;-89
2023/07/22 05:24:56;;;;;;;14.95;9.23;;;;;;;13.56;100.00;101201.00;4959271;28;20091;-88
2023/07/22 05:27:24;;;;;;;15.03;8.80;;;;;;;13.57;100.00;101207.28;4958162;28;20035;-89
2023/07/22 05:29:52;;;;;;;16.35;9.23;;;;;;;13.58;100.00;101206.22;4975653;28;20097;-89
2023/07/22 05:32:23;;;;;;;16.73;9.23;;;;;;;13.65;100.00;101205.06;4957574;28;20038;-89
2023/07/22 05:34:51;;;;;;;14.48;8.75;;;;;;;13.79;100.00;101205.78;4943440;28;20037;-89
2023/07/22 05:37:19;;;;;;;15.88;8.98;;;;;;;13.90;100.00;101195.16;4975415;28;20026;-88
2023/07/22 05:39:44;;;;;;;15.43;8.18;;;;;;;14.07;100.00;101207.13;4957956;28;20054;-90
2023/07/22 05:42:12;;;;;;;16.63;9.07;;;;;;;14.25;100.00;101205.41;4958308;28;20027;-87
2023/07/22 05:44:38;;;;;;;18.52;9.55;;;;;;;14.34;100.00;101209.47;4958026;28;20030;-88
2023/07/22 05:47:03;;;;;;;16.57;8.87;;;;;;;14.48;100.00;101210.09;4958255;28;20031;-87
2023/07/22 05:49:29;;;;;;;15.80;8.47;;;;;;;14.57;100.00;101212.28;4942555;28;20551;-87
2023/07/22 05:51:54;;;;;;;18.05;9.30;;;;;;;14.61;99.73;101211.81;4941789;28;20039;-86
2023/07/22 05:54:21;;;;;;;16.30;9.20;;;;;;;14.57;99.92;101198.63;4957744;28;20085;-89
2023/07/22 05:56:46;;;;;;;16.25;9.20;;;;;;;14.61;99.54;101199.00;4975852;28;20142;-92
2023/07/22 05:59:12;;;;;;;15.77;8.90;;;;;;;14.71;99.60;101193.81;4976999;28;20038;-87
2023/07/22 06:01:38;;;;;;;16.93;9.40;;;;;;;14.81;98.87;101209.63;4977320;28;20045;-88
2023/07/22 06:04:04;;;;;;;18.10;9.90;;;;;;;14.91;99.14;101207.16;4994100;28;20027;-87
2023/07/22 06:06:29;;;;;;;18.67;9.88;;;;;;;14.94;98.04;101186.75;4977324;28;20088;-87
2023/07/22 06:08:55;;;;;;;16.67;9.40;;;;;;;15.12;98.04;101204.91;4945927;28;20375;-92
2023/07/22 06:11:21;;;;;;;15.13;8.07;;;;;;;15.21;98.13;101194.47;4977023;28;20034;-88
2023/07/22 06:13:46;;;;;;;18.50;9.80;;;;;;;15.26;97.15;101194.56;4977014;28;20034;-88
2023/07/22 06:16:12;;;;;;;16.67;9.37;;;;;;;15.20;97.58;101198.25;4976844;28;20463;-87
2023/07/22 06:18:37;;;;;;;17.10;9.57;;;;;;;15.20;98.09;101206.47;4994119;28;20026;-88
2023/07/22 06:21:03;;;;;;;17.13;8.82;;;;;;;15.16;98.19;101188.88;4961009;28;20031;-89
2023/07/22 06:23:29;;;;;;;18.45;9.77;;;;;;;15.30;98.48;101203.13;4994232;28;20038;-89
2023/07/22 06:25:57;;;;;;;17.37;9.97;;;;;;;15.36;98.12;101194.81;4960769;28;20081;-89
2023/07/22 06:28:22;;;;;;;18.52;10.77;;;;;;;15.39;97.80;101193.50;4960434;28;20026;-90
2023/07/22 06:30:48;;;;;;;19.17;10.33;;;;;;;15.29;97.95;101179.59;4994349;28;20374;-90
2023/07/22 06:33:13;;;;;;;20.33;10.27;;;;;;;15.36;99.16;101191.25;4960399;28;20542;-90
2023/07/22 06:35:39;;;;;;;21.30;10.30;;;;;;;15.39;98.58;101185.28;4976716;28;20032;-89
2023/07/22 06:38:04;;;;;;;25.47;10.67;;;;;;;15.52;99.19;101197.91;4977241;28;20526;-90
2023/07/22 06:40:30;;;;;;;20.70;10.67;;;;;;;15.58;98.04;101180.50;4960603;28;20448;-89
2023/07/22 06:42:55;;;;;;;20.23;11.00;;;;;;;15.61;98.00;101180.84;4977288;28;20038;-89
2023/07/22 06:45:21;;;;;;;23.15;10.65;;;;;;;15.71;97.98;101182.97;4976379;28;20030;-89
2023/07/22 06:47:46;;;;;;;17.80;9.67;;;;;;;15.77;98.17;101178.44;4976535;28;20038;-89
2023/07/22 06:50:12;;;;;;;21.23;10.17;;;;;;;15.78;97.43;101191.91;4960570;28;20030;-87
2023/07/22 06:52:38;;;;;;;19.10;10.82;;;;;;;15.86;97.86;101187.16;4993783;28;20033;-87
2023/07/22 06:55:04;;;;;;;19.90;10.63;;;;;;;15.86;97.25;101182.50;4944029;28;20502;-87
2023/07/22 06:57:30;;;;;;;20.03;11.00;;;;;;;16.05;96.66;101179.59;4994345;28;20254;-87
2023/07/22 06:59:56;;;;;;;22.88;10.95;;;;;;;16.14;97.01;101180.84;4976279;28;20475;-88
2023/07/22 07:02:22;;;;;;;19.90;10.77;;;;;;;16.30;96.38;101174.59;4993461;28;20104;-88
2023/07/22 07:04:48;;;;;;;19.45;10.60;;;;;;;16.36;94.89;101174.66;4944669;28;20074;-88
2023/07/22 07:07:14;;;;;;;21.67;10.88;;;;;;;16.35;94.37;101173.03;4976450;28;20022;-88
2023/07/22 07:09:40;;;;;;;26.97;11.43;;;;;;;16.37;94.33;101168.97;4976445;28;20533;-88
2023/07/22 07:12:06;;;;;;;28.83;11.68;;;;;;;16.52;94.42;101178.50;4960018;28;20030;-88
2023/07/22 07:14:32;;;;;;;23.73;11.13;;;;;;;16.63;94.19;101174.88;4959956;28;20069;-88
2023/07/22 07:16:58;;;;;;;22.13;11.20;;;;;;;16.77;93.13;101176.22;4977432;28;20046;-88
2023/07/22 07:19:23;;;;;;;21.53;10.57;;;;;;;16.97;92.37;101167.50;4964194;28;20102;-88
2023/07/22 07:21:49;;;;;;;18.33;10.30;;;;;;;17.00;91.64;101172.47;4979729;28;20038;-87
2023/07/22 07:24:15;;;;;;;15.15;10.30;;;;;;;17.10;92.12;101173.75;4980094;28;20065;-88
2023/07/22 07:26:40;;;;;;;23.73;9.97;;;;;;;17.30;92.09;101174.03;4979886;28;20029;-87
2023/07/22 07:29:06;;;;;;;20.42;10.05;;;;;;;17.52;90.73;101179.56;4979873;28;20466;-87
2023/07/22 07:31:31;;;;;;;19.90;10.70;;;;;;;17.57;89.44;101176.03;4979615;28;20475;-88
2023/07/22 07:33:57;;;;;;;21.43;9.10;;;;;;;17.55;89.42;101169.97;4979754;28;20023;-88
2023/07/22 07:36:23;;;;;;;15.25;9.55;;;;;;;17.70;88.93;101170.19;4979448;28;20545;-88
2023/07/22 07:38:48;;;;;;;21.87;9.73;;;;;;;17.73;88.66;101168.00;4979584;28;20041;-88
2023/07/22 07:41:14;;;;;;;17.95;9.75;;;;;;;17.75;89.24;101172.16;4996923;28;20030;-88
2023/07/22 07:43:41;;;;;;;14.73;9.63;;;;;;;17.84;88.70;101186.25;4996870;28;20042;-88
2023/07/22 07:46:21;;;;;;;16.30;8.85;;;;;;;17.90;88.28;101177.03;4996853;28;20026;-87
2023/07/22 07:48:59;;;;;;;15.88;9.70;;;;;;;18.03;87.82;101176.63;4979324;28;20053;-88
2023/07/22 07:51:28;;;;;;;16.58;8.52;;;;;;;18.05;86.49;101171.72;4979630;28;20486;-87
2023/07/22 07:53:54;;;;;;;17.77;9.30;;;;;;;18.18;87.32;101186.13;4963595;28;20489;-88
2023/07/22 07:56:20;;;;;;;14.60;8.18;;;;;;;18.14;84.88;101187.72;4979067;28;20088;-89
2023/07/22 07:58:48;;;;;;;15.73;8.40;;;;;;;18.02;85.92;101185.94;4979739;28;20042;-89
2023/07/22 08:01:14;;;;;;;17.75;8.65;;;;;;;17.97;85.57;101172.16;4996121;28;20033;-89
2023/07/22 08:03:43;;;;;;;17.80;8.37;;;;;;;17.98;85.01;101179.31;4996844;28;20030;-88
2023/07/22 08:06:10;;;;;;;15.65;8.38;;;;;;;18.08;84.92;101177.78;4996739;28;20054;-87
2023/07/22 08:08:36;;;;;;;14.10;8.15;;;;;;;18.15;86.20;101184.72;4979189;28;20535;-88
2023/07/22 08:11:04;;;;;;;16.05;8.80;;;;;;;18.27;84.02;101187.31;4978637;28;20537;-87
2023/07/22 08:13:31;;;;;;;14.77;8.48;;;;;;;18.38;83.97;101185.47;4978923;28;20582;-88
2023/07/22 08:15:57;;;;;;;18.90;8.27;;;;;;;18.49;83.52;101179.00;4997172;28;20041;-87
2023/07/22 08:18:23;;;;;;;16.88;8.63;;;;;;;18.54;82.44;101187.31;4996268;28;20493;-88
2023/07/22 08:20:50;;;;;;;15.35;8.10;;;;;;;18.55;82.57;101188.94;4962464;28;20034;-87
2023/07/22 08:23:15;;;;;;;16.10;7.82;;;;;;;18.39;81.80;101171.53;4978815;28;20058;-87
2023/07/22 08:25:41;;;;;;;18.47;7.60;;;;;;;18.30;81.30;101178.56;4978626;28;20037;-87
2023/07/22 08:28:07;;;;;;;14.93;7.97;;;;;;;18.18;82.50;101188.88;4996146;28;20562;-87
2023/07/22 08:30:32;;;;;;;18.33;8.10;;;;;;;18.06;83.89;101186.28;4962282;28;20093;-88
2023/07/22 08:32:58;;;;;;;15.33;7.20;;;;;;;18.18;83.06;101195.19;4995913;28;20033;-87
2023/07/22 08:35:24;;;;;;;15.77;7.25;;;;;;;18.00;83.67;101179.06;4978955;28;20037;-87
2023/07/22 08:37:50;;;;;;;16.10;8.10;;;;;;;18.04;84.68;101189.28;4978731;28;20034;-88
2023/07/22 08:40:15;;;;;;;15.25;7.50;;;;;;;18.08;83.22;101177.78;4978315;28;20033;-88
2023/07/22 08:42:41;;;;;;;14.20;6.57;;;;;;;18.20;80.82;101186.69;4995841;28;20057;-87
2023/07/22 08:45:12;;;;;;;15.45;7.10;;;;;;;18.37;81.82;101190.16;4978277;28;20475;-87
2023/07/22 08:47:49;;;;;;;13.13;7.33;;;;;;;18.38;82.18;101177.25;4979364;28;20381;-87
2023/07/22 08:50:19;;;;;;;13.98;7.20;;;;;;;18.48;81.64;101184.75;4978660;28;20023;-87
2023/07/22 08:52:46;;;;;;;15.30;7.30;;;;;;;18.57;81.40;101184.03;4978072;28;20026;-87
2023/07/22 08:55:15;;;;;;;13.55;6.90;;;;;;;18.69;80.13;101186.63;4977615;28;20054;-87
2023/07/22 08:57:41;;;;;;;12.25;6.70;;;;;;;19.00;77.63;101186.91;4978437;28;20042;-88
2023/07/22 09:00:09;;;;;;;14.63;6.73;;;;;;;19.14;76.14;101195.50;4978432;28;20483;-87
2023/07/22 09:02:35;;;;;;;12.98;6.38;;;;;;;19.12;75.88;101186.72;4977993;28;20026;-88
2023/07/22 09:05:05;;;;;;;13.52;6.63;;;;;;;19.23;75.45;101179.34;4977589;28;20099;-87
2023/07/22 09:07:30;;;;;;;11.88;6.20;;;;;;;19.41;76.41;101183.56;4977889;28;20034;-88
2023/07/22 09:10:02;;;;;;;13.90;5.63;;;;;;;19.52;72.32;101192.72;4961830;28;20034;-88
2023/07/22 09:12:31;;;;;;;9.48;5.32;;;;;;;19.35;70.51;101188.22;4977849;28;20033;-88
2023/07/22 09:14:57;;;;;;;9.50;5.18;;;;;;;19.32;72.65;101177.72;4977648;28;20037;-87
2023/07/22 09:17:23;;;;;;;10.43;5.23;;;;;;;19.40;71.31;101177.25;4977739;28;20030;-87
2023/07/22 09:19:53;;;;;;;11.00;5.80;;;;;;;19.65;72.24;101178.47;4977441;28;20042;-87
2023/07/22 09:22:24;;;;;;;10.98;5.30;;;;;;;20.13;72.48;101175.63;4977657;28;20471;-87
2023/07/22 09:24:50;;;;;;;10.43;5.93;;;;;;;20.33;69.98;101172.91;4961543;28;20081;-87
2023/07/22 09:27:17;;;;;;;12.05;5.20;;;;;;;20.72;69.77;101166.06;4977979;28;20034;-87
2023/07/22 09:29:46;;;;;;;11.20;5.20;;;;;;;20.89;66.02;101170.47;4977812;28;20030;-88
2023/07/22 09:32:11;;;;;;;14.63;5.38;;;;;;;20.80;64.94;101182.09;4977393;28;20407;-87
2023/07/22 09:34:36;;;;;;;8.73;4.80;;;;;;;20.60;66.44;101168.25;4977507;28;20038;-87
2023/07/22 09:37:03;;;;;;;9.20;4.53;;;;;;;20.80;66.38;101172.97;4978136;28;20364;-88
2023/07/22 09:39:30;;;;;;;10.50;5.47;;;;;;;20.88;66.24;101166.09;4976455;28;20035;-87
2023/07/22 09:41:55;;;;;;;9.70;4.17;;;;;;;21.02;64.47;101164.38;4977372;28;20092;-87
2023/07/22 09:44:22;;;;;;;6.05;4.60;;;;;;;21.11;64.43;101164.66;4977257;28;20403;-88
2023/07/22 09:46:49;;;;;;;10.52;4.57;;;;;;;21.01;64.99;101160.00;4994880;28;20101;-87
2023/07/22 09:49:16;;;;;;;10.13;4.70;;;;;;;20.95;66.81;101166.59;5010049;28;20042;-88
2023/07/22 09:51:42;;;;;;;12.50;4.40;;;;;;;21.08;66.48;101167.97;4994678;28;20034;-87
2023/07/22 09:54:07;;;;;;;14.02;5.00;;;;;;;21.10;66.19;101158.31;4994831;28;20034;-87
2023/07/22 09:56:47;;;;;;;10.60;4.80;;;;;;;21.28;65.19;101148.63;4976720;28;20503;-87
2023/07/22 09:59:12;;;;;;;12.68;4.15;;;;;;;21.16;62.83;101159.97;4994182;28;20514;-87
2023/07/22 10:01:39;;;;;;;9.03;4.00;;;;;;;20.93;63.96;101155.84;4994046;28;20022;-87
2023/07/22 10:04:05;;;;;;;10.45;3.60;;;;;;;20.96;64.05;101169.09;4994351;28;20041;-87
2023/07/22 10:06:32;;;;;;;13.77;4.35;;;;;;;20.95;63.81;101164.69;4976813;28;20065;-87
2023/07/22 10:09:03;;;;;;;12.00;4.05;;;;;;;21.21;64.79;101167.41;4978026;28;20077;-88
2023/07/22 10:11:30;;;;;;;9.23;4.40;;;;;;;21.36;64.53;101166.53;4994879;28;20030;-87
2023/07/22 10:13:56;;;;;;;9.63;4.63;;;;;;;21.31;64.19;101166.56;4976821;28;20026;-87
2023/07/22 10:16:23;;;;;;;12.35;4.18;;;;;;;21.18;64.09;101170.72;4994594;28;20038;-87
2023/07/22 10:18:49;;;;;;;9.23;3.75;;;;;;;21.09;63.01;101164.13;4993736;28;20073;-88
2023/07/22 10:21:15;;;;;;;9.52;2.90;;;;;;;21.03;62.07;101152.25;4961166;28;20165;-88
2023/07/22 10:23:41;;;;;;;9.40;2.90;;;;;;;21.10;61.15;101161.09;4976654;28;20073;-88
2023/07/22 10:26:07;;;;;;;11.80;3.38;;;;;;;21.25;61.34;101174.00;4977125;28;20038;-88
2023/07/22 10:28:32;;;;;;;9.77;2.72;;;;;;;21.30;60.78;101162.94;4977319;28;20027;-88
2023/07/22 10:30:59;;;;;;;6.20;2.53;;;;;;;21.57;58.01;101170.09;4976725;28;20049;-89
2023/07/22 10:33:25;;;;;;;8.75;2.60;;;;;;;21.56;56.59;101154.63;4976328;28;20026;-89
2023/07/22 10:36:14;;;;;;;9.10;2.17;;;;;;;21.72;58.19;101163.69;5009297;28;20034;-89
2023/07/22 10:38:39;;;;;;;7.45;3.28;;;;;;;21.68;58.51;101173.63;4976749;28;20080;-89
2023/07/22 10:41:19;;;;;;;6.03;2.70;;;;;;;21.79;58.10;101171.66;4976902;28;20113;-87
2023/07/22 10:43:56;;;;;;;4.55;2.28;;;;;;;21.95;56.58;101167.69;5009016;28;20033;-88
2023/07/22 10:46:43;;;;;;;6.97;2.45;;;;;;;22.33;56.65;101168.06;4994054;28;20018;-87
2023/07/22 10:49:13;;;;;;;8.13;2.30;;;;;;;22.55;54.51;101147.44;4994648;28;20033;-88
2023/07/22 10:51:39;;;;;;;8.30;2.30;;;;;;;22.70;53.88;101138.19;4996554;28;20442;-88
2023/07/22 10:54:14;;;;;;;4.53;2.00;;;;;;;22.67;52.58;101131.28;4980583;28;20034;-87
2023/07/22 10:56:46;;;;;;;4.28;2.00;;;;;;;22.59;51.97;101146.56;4997858;28;20057;-87
2023/07/22 10:59:12;;;;;;;4.90;2.15;;;;;;;22.27;51.65;101152.59;4981073;28;20065;-87
2023/07/22 11:01:39;;;;;;;4.70;2.10;;;;;;;21.90;53.44;101160.25;4980316;28;20367;-87
2023/07/22 11:04:35;;;;;;;3.80;2.10;;;;;;;21.85;53.51;101156.69;4997700;28;20034;-90
2023/07/22 11:07:05;;;;;;;5.53;2.10;;;;;;;21.95;54.48;101142.84;4995518;28;20050;-88
2023/07/22 11:09:33;;;;;;;7.03;2.03;;;;;;;21.97;53.03;101148.06;4997653;28;20030;-92
2023/07/22 11:12:13;;;;;;;4.55;2.00;;;;;;;21.93;53.68;101150.59;4979903;28;20042;-87
2023/07/22 11:14:48;;;;;;;8.40;2.13;;;;;;;22.35;53.16;101157.56;4979870;28;20411;-87
2023/07/22 11:17:14;;;;;;;3.72;2.00;;;;;;;22.70;51.19;101143.72;4979658;28;20030;-87
2023/07/22 11:19:40;;;;;;;3.20;1.70;;;;;;;23.09;48.77;101146.38;4980322;28;20379;-86
2023/07/22 11:22:06;;;;;;;6.43;1.88;;;;;;;23.18;48.02;101127.22;4997715;28;20042;-87
2023/07/22 11:24:35;;;;;;;5.77;1.90;;;;;;;23.34;47.57;101122.34;4979726;28;20030;-87
2023/07/22 11:27:06;;;;;;;5.53;1.90;;;;;;;23.03;48.55;101130.97;4979543;28;20041;-87
2023/07/22 11:29:32;;;;;;;7.93;2.70;;;;;;;22.66;49.18;101112.22;4980193;28;20026;-87
2023/07/22 11:31:58;;;;;;;3.57;1.90;;;;;;;22.70;48.68;101125.16;4979634;28;20034;-86
2023/07/22 11:34:24;;;;;;;4.93;2.00;;;;;;;23.15;49.39;101118.66;4997380;28;20490;-87
2023/07/22 11:36:51;;;;;;;5.47;1.98;;;;;;;23.68;47.22;101132.44;4979732;28;20034;-87
2023/07/22 11:39:19;;;;;;;5.50;2.20;;;;;;;23.25;47.79;101146.25;4997191;28;20034;-87
2023/07/22 11:41:46;;;;;;;6.93;2.78;;;;;;;23.10;48.69;101111.25;4979630;28;20489;-86
2023/07/22 11:44:18;;;;;;;7.85;2.10;;;;;;;23.76;47.74;101115.13;4979746;28;20376;-87
2023/07/22 11:47:00;;;;;;;5.50;2.15;;;;;;;25.38;44.44;101122.19;4997181;28;20037;-87